sensor_id;sensor_type;location;lat;lon;timestamp;P1;durP1;ratioP1;P2;durP2;ratioP2
72464;SDS011;60471;52.150;4.508;2022-08-01T00:02:17;12.70;;;5.38;;
72464;SDS011;60471;52.150;4.508;2022-08-01T00:04:43;12.25;;;5.93;;
72464;SDS011;60471;52.150;4.508;2022-08-01T00:07:09;13.85;;;5.10;;
72464;SDS011;60471;52.150;4.508;2022-08-01T00:09:35;12.93;;;5.82;;
72464;SDS011;60471;52.150;4.508;2022-08-01T00:12:01;11.77;;;4.55;;
72464;SDS011;60471;52.150;4.508;2022-08-01T00:14:28;11.60;;;4.18;;
72464;SDS011;60471;52.150;4.508;2022-08-01T00:16:54;12.50;;;4.47;;
72464;SDS011;60471;52.150;4.508;2022-08-01T00:19:20;10.15;;;3.95;;
72464;SDS011;60471;52.150;4.508;2022-08-01T00:21:46;11.43;;;4.82;;
72464;SDS011;60471;52.150;4.508;2022-08-01T00:24:13;8.73;;;3.20;;
72464;SDS011;60471;52.150;4.508;2022-08-01T00:26:39;12.95;;;4.13;;
72464;SDS011;60471;52.150;4.508;2022-08-01T00:29:05;9.40;;;3.72;;
72464;SDS011;60471;52.150;4.508;2022-08-01T00:31:31;10.00;;;3.15;;
72464;SDS011;60471;52.150;4.508;2022-08-01T00:33:57;9.93;;;2.72;;
72464;SDS011;60471;52.150;4.508;2022-08-01T00:36:23;10.98;;;2.80;;
72464;SDS011;60471;52.150;4.508;2022-08-01T00:38:50;8.55;;;2.72;;
72464;SDS011;60471;52.150;4.508;2022-08-01T00:41:16;11.70;;;3.30;;
72464;SDS011;60471;52.150;4.508;2022-08-01T00:43:42;10.38;;;2.90;;
72464;SDS011;60471;52.150;4.508;2022-08-01T00:46:09;11.05;;;3.10;;
72464;SDS011;60471;52.150;4.508;2022-08-01T00:48:35;8.77;;;2.80;;
72464;SDS011;60471;52.150;4.508;2022-08-01T00:51:02;7.10;;;2.83;;
72464;SDS011;60471;52.150;4.508;2022-08-01T00:53:30;7.60;;;2.38;;
72464;SDS011;60471;52.150;4.508;2022-08-01T00:55:56;8.30;;;2.90;;
72464;SDS011;60471;52.150;4.508;2022-08-01T00:58:23;9.23;;;2.83;;
72464;SDS011;60471;52.150;4.508;2022-08-01T01:00:49;9.18;;;2.40;;
72464;SDS011;60471;52.150;4.508;2022-08-01T01:03:16;9.02;;;2.60;;
72464;SDS011;60471;52.150;4.508;2022-08-01T01:05:45;7.88;;;2.20;;
72464;SDS011;60471;52.150;4.508;2022-08-01T01:08:29;8.93;;;2.20;;
72464;SDS011;60471;52.150;4.508;2022-08-01T01:11:13;7.38;;;2.33;;
72464;SDS011;60471;52.150;4.508;2022-08-01T01:13:55;10.30;;;2.38;;
72464;SDS011;60471;52.150;4.508;2022-08-01T01:16:30;5.78;;;1.80;;
72464;SDS011;60471;52.150;4.508;2022-08-01T01:19:02;7.20;;;2.13;;
72464;SDS011;60471;52.150;4.508;2022-08-01T01:21:47;7.88;;;2.33;;
72464;SDS011;60471;52.150;4.508;2022-08-01T01:24:46;8.15;;;2.47;;
72464;SDS011;60471;52.150;4.508;2022-08-01T01:27:57;6.35;;;2.25;;
72464;SDS011;60471;52.150;4.508;2022-08-01T01:30:55;10.27;;;2.33;;
72464;SDS011;60471;52.150;4.508;2022-08-01T01:33:25;7.43;;;2.30;;
72464;SDS011;60471;52.150;4.508;2022-08-01T01:35:58;6.40;;;2.00;;
72464;SDS011;60471;52.150;4.508;2022-08-01T01:38:29;7.32;;;2.10;;
72464;SDS011;60471;52.150;4.508;2022-08-01T01:41:02;7.32;;;2.03;;
72464;SDS011;60471;52.150;4.508;2022-08-01T01:43:31;7.13;;;2.25;;
72464;SDS011;60471;52.150;4.508;2022-08-01T01:46:01;8.38;;;2.50;;
72464;SDS011;60471;52.150;4.508;2022-08-01T01:48:33;7.55;;;2.13;;
72464;SDS011;60471;52.150;4.508;2022-08-01T01:51:01;9.10;;;2.38;;
72464;SDS011;60471;52.150;4.508;2022-08-01T01:53:29;8.02;;;2.15;;
72464;SDS011;60471;52.150;4.508;2022-08-01T01:56:00;6.93;;;2.17;;
72464;SDS011;60471;52.150;4.508;2022-08-01T01:58:28;6.10;;;1.95;;
72464;SDS011;60471;52.150;4.508;2022-08-01T02:01:00;7.90;;;2.30;;
72464;SDS011;60471;52.150;4.508;2022-08-01T02:03:29;7.28;;;2.38;;
72464;SDS011;60471;52.150;4.508;2022-08-01T02:05:57;9.75;;;2.55;;
72464;SDS011;60471;52.150;4.508;2022-08-01T02:08:27;8.65;;;2.45;;
72464;SDS011;60471;52.150;4.508;2022-08-01T02:10:56;8.02;;;2.60;;
72464;SDS011;60471;52.150;4.508;2022-08-01T02:13:46;7.93;;;2.63;;
72464;SDS011;60471;52.150;4.508;2022-08-01T02:16:27;7.03;;;2.55;;
72464;SDS011;60471;52.150;4.508;2022-08-01T02:18:57;9.77;;;3.13;;
72464;SDS011;60471;52.150;4.508;2022-08-01T02:21:27;11.18;;;3.55;;
72464;SDS011;60471;52.150;4.508;2022-08-01T02:27:14;9.10;;;3.10;;
72464;SDS011;60471;52.150;4.508;2022-08-01T02:29:57;9.90;;;3.50;;
72464;SDS011;60471;52.150;4.508;2022-08-01T02:32:31;17.10;;;3.30;;
72464;SDS011;60471;52.150;4.508;2022-08-01T02:35:13;12.15;;;2.97;;
72464;SDS011;60471;52.150;4.508;2022-08-01T02:37:47;9.60;;;2.95;;
72464;SDS011;60471;52.150;4.508;2022-08-01T02:40:15;8.50;;;3.00;;
72464;SDS011;60471;52.150;4.508;2022-08-01T02:42:44;8.60;;;2.58;;
72464;SDS011;60471;52.150;4.508;2022-08-01T02:45:15;8.35;;;2.55;;
72464;SDS011;60471;52.150;4.508;2022-08-01T02:47:46;9.67;;;2.60;;
72464;SDS011;60471;52.150;4.508;2022-08-01T02:50:16;8.55;;;2.90;;
72464;SDS011;60471;52.150;4.508;2022-08-01T02:52:46;8.32;;;3.00;;
72464;SDS011;60471;52.150;4.508;2022-08-01T02:55:16;8.43;;;2.60;;
72464;SDS011;60471;52.150;4.508;2022-08-01T02:57:47;7.25;;;2.70;;
72464;SDS011;60471;52.150;4.508;2022-08-01T03:00:17;9.73;;;2.80;;
72464;SDS011;60471;52.150;4.508;2022-08-01T03:02:43;8.38;;;2.67;;
72464;SDS011;60471;52.150;4.508;2022-08-01T03:05:16;14.27;;;2.97;;
72464;SDS011;60471;52.150;4.508;2022-08-01T03:07:43;11.25;;;3.03;;
72464;SDS011;60471;52.150;4.508;2022-08-01T03:10:11;8.48;;;2.80;;
72464;SDS011;60471;52.150;4.508;2022-08-01T03:12:41;7.55;;;2.80;;
72464;SDS011;60471;52.150;4.508;2022-08-01T03:15:11;9.30;;;2.70;;
72464;SDS011;60471;52.150;4.508;2022-08-01T03:17:40;8.57;;;2.38;;
72464;SDS011;60471;52.150;4.508;2022-08-01T03:20:10;6.25;;;2.13;;
72464;SDS011;60471;52.150;4.508;2022-08-01T03:22:40;9.40;;;2.40;;
72464;SDS011;60471;52.150;4.508;2022-08-01T03:25:10;6.55;;;2.33;;
72464;SDS011;60471;52.150;4.508;2022-08-01T03:27:42;12.95;;;2.47;;
72464;SDS011;60471;52.150;4.508;2022-08-01T03:30:11;9.27;;;2.80;;
72464;SDS011;60471;52.150;4.508;2022-08-01T03:32:38;9.23;;;2.33;;
72464;SDS011;60471;52.150;4.508;2022-08-01T03:35:06;10.30;;;2.75;;
72464;SDS011;60471;52.150;4.508;2022-08-01T03:37:36;7.88;;;2.08;;
72464;SDS011;60471;52.150;4.508;2022-08-01T03:45:19;7.70;;;2.50;;
72464;SDS011;60471;52.150;4.508;2022-08-01T03:47:56;10.07;;;2.67;;
72464;SDS011;60471;52.150;4.508;2022-08-01T03:50:29;7.22;;;2.40;;
72464;SDS011;60471;52.150;4.508;2022-08-01T03:53:00;10.30;;;2.70;;
72464;SDS011;60471;52.150;4.508;2022-08-01T03:55:29;8.48;;;2.50;;
72464;SDS011;60471;52.150;4.508;2022-08-01T03:57:59;8.70;;;2.10;;
72464;SDS011;60471;52.150;4.508;2022-08-01T04:00:26;8.07;;;2.70;;
72464;SDS011;60471;52.150;4.508;2022-08-01T04:02:53;8.10;;;2.20;;
72464;SDS011;60471;52.150;4.508;2022-08-01T04:05:20;7.35;;;2.15;;
72464;SDS011;60471;52.150;4.508;2022-08-01T04:07:47;9.93;;;2.58;;
72464;SDS011;60471;52.150;4.508;2022-08-01T04:10:21;7.65;;;2.17;;
72464;SDS011;60471;52.150;4.508;2022-08-01T04:12:49;6.90;;;2.25;;
72464;SDS011;60471;52.150;4.508;2022-08-01T04:15:15;9.45;;;2.40;;
72464;SDS011;60471;52.150;4.508;2022-08-01T04:17:41;6.70;;;1.95;;
72464;SDS011;60471;52.150;4.508;2022-08-01T04:20:08;9.45;;;2.50;;
72464;SDS011;60471;52.150;4.508;2022-08-01T04:22:36;7.82;;;2.28;;
72464;SDS011;60471;52.150;4.508;2022-08-01T04:25:04;6.93;;;2.22;;
72464;SDS011;60471;52.150;4.508;2022-08-01T04:27:41;9.07;;;3.55;;
72464;SDS011;60471;52.150;4.508;2022-08-01T04:30:12;17.10;;;8.05;;
72464;SDS011;60471;52.150;4.508;2022-08-01T04:32:41;10.30;;;4.47;;
72464;SDS011;60471;52.150;4.508;2022-08-01T04:35:11;7.32;;;2.42;;
72464;SDS011;60471;52.150;4.508;2022-08-01T04:37:42;7.82;;;2.80;;
72464;SDS011;60471;52.150;4.508;2022-08-01T04:40:13;7.53;;;2.72;;
72464;SDS011;60471;52.150;4.508;2022-08-01T04:42:42;9.73;;;3.22;;
72464;SDS011;60471;52.150;4.508;2022-08-01T04:45:08;7.93;;;2.50;;
72464;SDS011;60471;52.150;4.508;2022-08-01T04:47:36;8.50;;;2.83;;
72464;SDS011;60471;52.150;4.508;2022-08-01T04:50:04;7.60;;;2.72;;
72464;SDS011;60471;52.150;4.508;2022-08-01T04:52:36;25.90;;;15.75;;
72464;SDS011;60471;52.150;4.508;2022-08-01T04:55:04;13.30;;;7.43;;
72464;SDS011;60471;52.150;4.508;2022-08-01T04:57:33;10.32;;;3.10;;
72464;SDS011;60471;52.150;4.508;2022-08-01T05:00:03;8.18;;;2.72;;
72464;SDS011;60471;52.150;4.508;2022-08-01T05:02:32;9.07;;;2.70;;
72464;SDS011;60471;52.150;4.508;2022-08-01T05:04:58;7.45;;;2.47;;
72464;SDS011;60471;52.150;4.508;2022-08-01T05:07:24;8.55;;;2.10;;
72464;SDS011;60471;52.150;4.508;2022-08-01T05:09:51;6.72;;;1.90;;
72464;SDS011;60471;52.150;4.508;2022-08-01T05:12:17;7.50;;;2.17;;
72464;SDS011;60471;52.150;4.508;2022-08-01T05:14:44;5.88;;;1.60;;
72464;SDS011;60471;52.150;4.508;2022-08-01T05:17:11;6.72;;;2.00;;
72464;SDS011;60471;52.150;4.508;2022-08-01T05:19:38;5.88;;;1.90;;
72464;SDS011;60471;52.150;4.508;2022-08-01T05:22:07;19.05;;;10.75;;
72464;SDS011;60471;52.150;4.508;2022-08-01T05:24:35;11.77;;;5.60;;
72464;SDS011;60471;52.150;4.508;2022-08-01T05:27:06;8.38;;;2.80;;
72464;SDS011;60471;52.150;4.508;2022-08-01T05:29:33;8.27;;;2.85;;
72464;SDS011;60471;52.150;4.508;2022-08-01T05:32:01;6.50;;;2.20;;
72464;SDS011;60471;52.150;4.508;2022-08-01T05:34:28;7.72;;;2.50;;
72464;SDS011;60471;52.150;4.508;2022-08-01T05:36:54;10.93;;;3.03;;
72464;SDS011;60471;52.150;4.508;2022-08-01T05:39:20;7.63;;;2.45;;
72464;SDS011;60471;52.150;4.508;2022-08-01T05:41:46;8.63;;;2.70;;
72464;SDS011;60471;52.150;4.508;2022-08-01T05:44:13;9.40;;;2.72;;
72464;SDS011;60471;52.150;4.508;2022-08-01T05:46:39;12.57;;;6.32;;
72464;SDS011;60471;52.150;4.508;2022-08-01T05:49:06;16.02;;;9.48;;
72464;SDS011;60471;52.150;4.508;2022-08-01T05:51:32;11.30;;;5.15;;
72464;SDS011;60471;52.150;4.508;2022-08-01T05:53:59;11.20;;;5.18;;
72464;SDS011;60471;52.150;4.508;2022-08-01T05:56:25;9.80;;;3.97;;
72464;SDS011;60471;52.150;4.508;2022-08-01T05:58:51;9.63;;;3.80;;
72464;SDS011;60471;52.150;4.508;2022-08-01T06:01:18;8.82;;;3.05;;
72464;SDS011;60471;52.150;4.508;2022-08-01T06:03:45;11.13;;;3.97;;
72464;SDS011;60471;52.150;4.508;2022-08-01T06:06:12;8.65;;;3.50;;
72464;SDS011;60471;52.150;4.508;2022-08-01T06:08:39;13.38;;;4.13;;
72464;SDS011;60471;52.150;4.508;2022-08-01T06:11:07;9.70;;;3.65;;
72464;SDS011;60471;52.150;4.508;2022-08-01T06:13:33;10.73;;;4.07;;
72464;SDS011;60471;52.150;4.508;2022-08-01T06:15:59;15.52;;;4.90;;
72464;SDS011;60471;52.150;4.508;2022-08-01T06:18:26;19.70;;;6.35;;
72464;SDS011;60471;52.150;4.508;2022-08-01T06:20:52;20.70;;;5.03;;
72464;SDS011;60471;52.150;4.508;2022-08-01T06:23:19;18.52;;;5.20;;
72464;SDS011;60471;52.150;4.508;2022-08-01T06:25:47;19.58;;;5.07;;
72464;SDS011;60471;52.150;4.508;2022-08-01T06:28:14;19.92;;;5.00;;
72464;SDS011;60471;52.150;4.508;2022-08-01T06:30:40;21.58;;;4.95;;
72464;SDS011;60471;52.150;4.508;2022-08-01T06:33:06;20.88;;;4.90;;
72464;SDS011;60471;52.150;4.508;2022-08-01T06:35:32;17.10;;;5.03;;
72464;SDS011;60471;52.150;4.508;2022-08-01T06:37:59;19.58;;;4.60;;
72464;SDS011;60471;52.150;4.508;2022-08-01T06:40:25;23.13;;;5.70;;
72464;SDS011;60471;52.150;4.508;2022-08-01T06:42:51;23.60;;;5.43;;
72464;SDS011;60471;52.150;4.508;2022-08-01T06:45:17;20.73;;;5.35;;
72464;SDS011;60471;52.150;4.508;2022-08-01T06:47:44;26.02;;;7.43;;
72464;SDS011;60471;52.150;4.508;2022-08-01T06:50:11;24.10;;;6.35;;
72464;SDS011;60471;52.150;4.508;2022-08-01T06:52:38;18.67;;;4.80;;
72464;SDS011;60471;52.150;4.508;2022-08-01T06:55:05;17.42;;;4.40;;
72464;SDS011;60471;52.150;4.508;2022-08-01T06:57:32;20.38;;;4.20;;
72464;SDS011;60471;52.150;4.508;2022-08-01T07:00:00;27.17;;;4.53;;
72464;SDS011;60471;52.150;4.508;2022-08-01T07:02:33;25.52;;;4.38;;
72464;SDS011;60471;52.150;4.508;2022-08-01T07:04:59;23.15;;;4.78;;
72464;SDS011;60471;52.150;4.508;2022-08-01T07:07:26;20.90;;;3.90;;
72464;SDS011;60471;52.150;4.508;2022-08-01T07:09:53;24.13;;;4.47;;
72464;SDS011;60471;52.150;4.508;2022-08-01T07:12:19;20.70;;;3.92;;
72464;SDS011;60471;52.150;4.508;2022-08-01T07:14:45;22.67;;;4.28;;
72464;SDS011;60471;52.150;4.508;2022-08-01T07:17:11;28.92;;;3.70;;
72464;SDS011;60471;52.150;4.508;2022-08-01T07:19:37;21.80;;;3.88;;
72464;SDS011;60471;52.150;4.508;2022-08-01T07:22:04;24.48;;;4.18;;
72464;SDS011;60471;52.150;4.508;2022-08-01T07:24:30;22.95;;;4.22;;
72464;SDS011;60471;52.150;4.508;2022-08-01T07:26:57;17.90;;;4.68;;
72464;SDS011;60471;52.150;4.508;2022-08-01T07:29:23;21.02;;;3.70;;
72464;SDS011;60471;52.150;4.508;2022-08-01T07:31:54;19.55;;;5.78;;
72464;SDS011;60471;52.150;4.508;2022-08-01T07:34:23;28.75;;;8.20;;
72464;SDS011;60471;52.150;4.508;2022-08-01T07:36:50;16.52;;;3.40;;
72464;SDS011;60471;52.150;4.508;2022-08-01T07:39:18;20.45;;;3.65;;
72464;SDS011;60471;52.150;4.508;2022-08-01T07:41:45;22.48;;;3.45;;
72464;SDS011;60471;52.150;4.508;2022-08-01T07:44:11;15.57;;;3.58;;
72464;SDS011;60471;52.150;4.508;2022-08-01T07:46:37;21.58;;;3.10;;
72464;SDS011;60471;52.150;4.508;2022-08-01T07:49:03;20.42;;;3.50;;
72464;SDS011;60471;52.150;4.508;2022-08-01T07:51:30;26.63;;;3.58;;
72464;SDS011;60471;52.150;4.508;2022-08-01T07:53:56;22.55;;;3.85;;
72464;SDS011;60471;52.150;4.508;2022-08-01T07:56:22;16.48;;;3.60;;
72464;SDS011;60471;52.150;4.508;2022-08-01T07:58:49;23.60;;;3.58;;
72464;SDS011;60471;52.150;4.508;2022-08-01T08:01:16;17.23;;;3.03;;
72464;SDS011;60471;52.150;4.508;2022-08-01T08:03:43;19.20;;;3.03;;
72464;SDS011;60471;52.150;4.508;2022-08-01T08:06:09;17.92;;;3.33;;
72464;SDS011;60471;52.150;4.508;2022-08-01T08:08:35;18.33;;;3.00;;
72464;SDS011;60471;52.150;4.508;2022-08-01T08:11:02;16.48;;;2.78;;
72464;SDS011;60471;52.150;4.508;2022-08-01T08:13:28;10.80;;;2.15;;
72464;SDS011;60471;52.150;4.508;2022-08-01T08:15:54;10.93;;;2.72;;
72464;SDS011;60471;52.150;4.508;2022-08-01T08:18:21;11.90;;;2.13;;
72464;SDS011;60471;52.150;4.508;2022-08-01T08:20:47;10.77;;;2.33;;
72464;SDS011;60471;52.150;4.508;2022-08-01T08:23:14;14.88;;;2.17;;
72464;SDS011;60471;52.150;4.508;2022-08-01T08:25:59;12.82;;;2.60;;
72464;SDS011;60471;52.150;4.508;2022-08-01T08:28:25;15.07;;;2.75;;
72464;SDS011;60471;52.150;4.508;2022-08-01T08:30:51;12.38;;;2.38;;
72464;SDS011;60471;52.150;4.508;2022-08-01T08:33:20;16.25;;;2.50;;
72464;SDS011;60471;52.150;4.508;2022-08-01T08:35:46;15.32;;;2.70;;
72464;SDS011;60471;52.150;4.508;2022-08-01T08:38:13;17.83;;;4.93;;
72464;SDS011;60471;52.150;4.508;2022-08-01T08:40:39;14.93;;;5.63;;
72464;SDS011;60471;52.150;4.508;2022-08-01T08:43:05;14.10;;;2.40;;
72464;SDS011;60471;52.150;4.508;2022-08-01T08:45:32;14.50;;;2.22;;
72464;SDS011;60471;52.150;4.508;2022-08-01T08:47:59;11.90;;;2.20;;
72464;SDS011;60471;52.150;4.508;2022-08-01T08:50:27;14.18;;;2.50;;
72464;SDS011;60471;52.150;4.508;2022-08-01T08:52:54;14.98;;;2.13;;
72464;SDS011;60471;52.150;4.508;2022-08-01T08:55:22;19.95;;;2.22;;
72464;SDS011;60471;52.150;4.508;2022-08-01T08:57:49;13.75;;;3.15;;
72464;SDS011;60471;52.150;4.508;2022-08-01T09:00:17;10.32;;;2.10;;
72464;SDS011;60471;52.150;4.508;2022-08-01T09:02:44;11.07;;;2.28;;
72464;SDS011;60471;52.150;4.508;2022-08-01T09:05:12;13.65;;;2.95;;
72464;SDS011;60471;52.150;4.508;2022-08-01T09:07:39;16.00;;;3.03;;
72464;SDS011;60471;52.150;4.508;2022-08-01T09:10:05;15.13;;;2.53;;
72464;SDS011;60471;52.150;4.508;2022-08-01T09:12:33;14.80;;;3.25;;
72464;SDS011;60471;52.150;4.508;2022-08-01T09:14:59;19.35;;;2.50;;
72464;SDS011;60471;52.150;4.508;2022-08-01T09:17:25;13.57;;;2.45;;
72464;SDS011;60471;52.150;4.508;2022-08-01T09:19:53;12.32;;;2.20;;
72464;SDS011;60471;52.150;4.508;2022-08-01T09:22:22;13.15;;;2.22;;
72464;SDS011;60471;52.150;4.508;2022-08-01T09:25:23;11.85;;;1.80;;
72464;SDS011;60471;52.150;4.508;2022-08-01T09:27:42;17.27;;;4.10;;
72464;SDS011;60471;52.150;4.508;2022-08-01T09:30:10;15.80;;;4.93;;
72464;SDS011;60471;52.150;4.508;2022-08-01T09:32:56;12.32;;;2.58;;
72464;SDS011;60471;52.150;4.508;2022-08-01T09:35:32;16.77;;;2.40;;
72464;SDS011;60471;52.150;4.508;2022-08-01T09:38:15;12.40;;;2.50;;
72464;SDS011;60471;52.150;4.508;2022-08-01T09:40:52;12.13;;;2.53;;
72464;SDS011;60471;52.150;4.508;2022-08-01T09:43:27;12.00;;;2.20;;
72464;SDS011;60471;52.150;4.508;2022-08-01T09:45:57;14.18;;;2.30;;
72464;SDS011;60471;52.150;4.508;2022-08-01T09:48:23;11.10;;;1.98;;
72464;SDS011;60471;52.150;4.508;2022-08-01T09:50:51;11.55;;;2.30;;
72464;SDS011;60471;52.150;4.508;2022-08-01T09:53:18;11.60;;;1.70;;
72464;SDS011;60471;52.150;4.508;2022-08-01T09:55:45;9.80;;;1.83;;
72464;SDS011;60471;52.150;4.508;2022-08-01T09:58:11;10.70;;;2.10;;
72464;SDS011;60471;52.150;4.508;2022-08-01T10:00:38;15.35;;;2.30;;
72464;SDS011;60471;52.150;4.508;2022-08-01T10:03:24;16.67;;;1.92;;
72464;SDS011;60471;52.150;4.508;2022-08-01T10:05:52;10.10;;;1.90;;
72464;SDS011;60471;52.150;4.508;2022-08-01T10:08:19;11.43;;;1.95;;
72464;SDS011;60471;52.150;4.508;2022-08-01T10:11:05;12.40;;;2.13;;
72464;SDS011;60471;52.150;4.508;2022-08-01T10:13:34;10.63;;;2.03;;
72464;SDS011;60471;52.150;4.508;2022-08-01T10:16:01;12.40;;;2.35;;
72464;SDS011;60471;52.150;4.508;2022-08-01T10:18:31;12.60;;;1.77;;
72464;SDS011;60471;52.150;4.508;2022-08-01T10:21:01;23.55;;;7.97;;
72464;SDS011;60471;52.150;4.508;2022-08-01T10:23:36;29.63;;;7.07;;
72464;SDS011;60471;52.150;4.508;2022-08-01T10:26:07;17.33;;;3.47;;
72464;SDS011;60471;52.150;4.508;2022-08-01T10:28:37;9.98;;;2.55;;
72464;SDS011;60471;52.150;4.508;2022-08-01T10:31:06;15.13;;;2.08;;
72464;SDS011;60471;52.150;4.508;2022-08-01T10:33:33;14.13;;;2.50;;
72464;SDS011;60471;52.150;4.508;2022-08-01T10:36:02;14.95;;;2.53;;
72464;SDS011;60471;52.150;4.508;2022-08-01T10:38:28;11.82;;;1.98;;
72464;SDS011;60471;52.150;4.508;2022-08-01T10:40:55;13.73;;;2.30;;
72464;SDS011;60471;52.150;4.508;2022-08-01T10:43:27;14.48;;;2.10;;
72464;SDS011;60471;52.150;4.508;2022-08-01T10:45:53;10.65;;;2.15;;
72464;SDS011;60471;52.150;4.508;2022-08-01T10:48:26;12.18;;;1.80;;
72464;SDS011;60471;52.150;4.508;2022-08-01T10:51:12;10.70;;;2.33;;
72464;SDS011;60471;52.150;4.508;2022-08-01T10:53:48;10.45;;;1.73;;
72464;SDS011;60471;52.150;4.508;2022-08-01T10:56:19;10.88;;;1.77;;
72464;SDS011;60471;52.150;4.508;2022-08-01T10:58:48;9.95;;;1.55;;
72464;SDS011;60471;52.150;4.508;2022-08-01T11:01:25;9.98;;;1.73;;
72464;SDS011;60471;52.150;4.508;2022-08-01T11:04:03;10.35;;;1.75;;
72464;SDS011;60471;52.150;4.508;2022-08-01T11:09:02;11.05;;;2.10;;
72464;SDS011;60471;52.150;4.508;2022-08-01T11:17:30;14.73;;;1.92;;
72464;SDS011;60471;52.150;4.508;2022-08-01T11:20:06;9.93;;;1.80;;
72464;SDS011;60471;52.150;4.508;2022-08-01T11:26:06;10.43;;;1.75;;
72464;SDS011;60471;52.150;4.508;2022-08-01T11:30:44;10.13;;;2.00;;
72464;SDS011;60471;52.150;4.508;2022-08-01T11:41:34;10.95;;;1.80;;
72464;SDS011;60471;52.150;4.508;2022-08-01T11:44:14;8.38;;;1.83;;
72464;SDS011;60471;52.150;4.508;2022-08-01T11:49:28;8.50;;;2.00;;
72464;SDS011;60471;52.150;4.508;2022-08-01T11:52:24;11.45;;;1.80;;
72464;SDS011;60471;52.150;4.508;2022-08-01T11:54:55;10.70;;;1.85;;
72464;SDS011;60471;52.150;4.508;2022-08-01T11:57:28;11.23;;;1.75;;
72464;SDS011;60471;52.150;4.508;2022-08-01T11:59:59;11.27;;;2.03;;
72464;SDS011;60471;52.150;4.508;2022-08-01T12:05:00;12.55;;;2.60;;
72464;SDS011;60471;52.150;4.508;2022-08-01T12:07:37;12.45;;;3.40;;
72464;SDS011;60471;52.150;4.508;2022-08-01T12:10:13;11.18;;;2.30;;
72464;SDS011;60471;52.150;4.508;2022-08-01T12:12:44;13.57;;;1.90;;
72464;SDS011;60471;52.150;4.508;2022-08-01T12:15:23;11.45;;;2.08;;
72464;SDS011;60471;52.150;4.508;2022-08-01T12:18:00;13.57;;;2.20;;
72464;SDS011;60471;52.150;4.508;2022-08-01T12:20:31;11.85;;;2.28;;
72464;SDS011;60471;52.150;4.508;2022-08-01T12:23:01;14.60;;;2.15;;
72464;SDS011;60471;52.150;4.508;2022-08-01T12:25:31;8.85;;;2.13;;
72464;SDS011;60471;52.150;4.508;2022-08-01T12:28:04;9.55;;;2.03;;
72464;SDS011;60471;52.150;4.508;2022-08-01T12:30:33;11.10;;;2.10;;
72464;SDS011;60471;52.150;4.508;2022-08-01T12:33:08;10.52;;;2.10;;
72464;SDS011;60471;52.150;4.508;2022-08-01T12:35:36;10.98;;;2.22;;
72464;SDS011;60471;52.150;4.508;2022-08-01T12:38:07;12.88;;;2.25;;
72464;SDS011;60471;52.150;4.508;2022-08-01T12:40:42;11.25;;;2.33;;
72464;SDS011;60471;52.150;4.508;2022-08-01T12:43:17;17.83;;;4.20;;
72464;SDS011;60471;52.150;4.508;2022-08-01T12:45:47;15.18;;;3.42;;
72464;SDS011;60471;52.150;4.508;2022-08-01T12:48:16;9.60;;;2.35;;
72464;SDS011;60471;52.150;4.508;2022-08-01T12:50:44;15.85;;;2.10;;
72464;SDS011;60471;52.150;4.508;2022-08-01T12:53:14;8.98;;;2.00;;
72464;SDS011;60471;52.150;4.508;2022-08-01T12:55:45;13.32;;;2.08;;
72464;SDS011;60471;52.150;4.508;2022-08-01T12:58:14;12.65;;;1.70;;
72464;SDS011;60471;52.150;4.508;2022-08-01T13:00:44;10.88;;;2.10;;
72464;SDS011;60471;52.150;4.508;2022-08-01T13:03:17;11.55;;;1.92;;
72464;SDS011;60471;52.150;4.508;2022-08-01T13:10:45;10.52;;;1.73;;
72464;SDS011;60471;52.150;4.508;2022-08-01T13:13:13;16.98;;;2.17;;
72464;SDS011;60471;52.150;4.508;2022-08-01T13:15:43;10.82;;;2.13;;
72464;SDS011;60471;52.150;4.508;2022-08-01T13:18:26;16.38;;;2.70;;
72464;SDS011;60471;52.150;4.508;2022-08-01T13:24:09;20.98;;;7.85;;
72464;SDS011;60471;52.150;4.508;2022-08-01T13:29:31;15.82;;;2.20;;
72464;SDS011;60471;52.150;4.508;2022-08-01T13:34:47;12.88;;;1.90;;
72464;SDS011;60471;52.150;4.508;2022-08-01T13:37:14;15.75;;;2.25;;
72464;SDS011;60471;52.150;4.508;2022-08-01T13:39:43;11.68;;;2.08;;
72464;SDS011;60471;52.150;4.508;2022-08-01T13:42:14;16.00;;;2.47;;
72464;SDS011;60471;52.150;4.508;2022-08-01T13:44:42;8.85;;;2.10;;
72464;SDS011;60471;52.150;4.508;2022-08-01T13:47:12;14.48;;;1.92;;
72464;SDS011;60471;52.150;4.508;2022-08-01T13:49:38;9.05;;;1.83;;
72464;SDS011;60471;52.150;4.508;2022-08-01T13:52:05;11.93;;;2.03;;
72464;SDS011;60471;52.150;4.508;2022-08-01T13:54:34;10.40;;;2.35;;
72464;SDS011;60471;52.150;4.508;2022-08-01T13:57:00;13.02;;;5.68;;
72464;SDS011;60471;52.150;4.508;2022-08-01T13:59:27;18.38;;;9.52;;
72464;SDS011;60471;52.150;4.508;2022-08-01T14:01:53;10.90;;;2.15;;
72464;SDS011;60471;52.150;4.508;2022-08-01T14:04:20;14.25;;;1.95;;
72464;SDS011;60471;52.150;4.508;2022-08-01T14:06:46;11.27;;;2.58;;
72464;SDS011;60471;52.150;4.508;2022-08-01T14:09:13;12.15;;;2.25;;
72464;SDS011;60471;52.150;4.508;2022-08-01T14:11:42;11.23;;;2.45;;
72464;SDS011;60471;52.150;4.508;2022-08-01T14:14:09;10.05;;;2.15;;
72464;SDS011;60471;52.150;4.508;2022-08-01T14:16:35;11.05;;;1.73;;
72464;SDS011;60471;52.150;4.508;2022-08-01T14:19:03;16.05;;;2.05;;
72464;SDS011;60471;52.150;4.508;2022-08-01T14:21:29;11.07;;;1.70;;
72464;SDS011;60471;52.150;4.508;2022-08-01T14:23:56;10.98;;;4.55;;
72464;SDS011;60471;52.150;4.508;2022-08-01T14:26:23;14.45;;;2.10;;
72464;SDS011;60471;52.150;4.508;2022-08-01T14:28:49;8.05;;;1.67;;
72464;SDS011;60471;52.150;4.508;2022-08-01T14:31:16;10.60;;;1.60;;
72464;SDS011;60471;52.150;4.508;2022-08-01T14:33:42;7.75;;;1.58;;
72464;SDS011;60471;52.150;4.508;2022-08-01T14:36:08;9.10;;;1.50;;
72464;SDS011;60471;52.150;4.508;2022-08-01T14:38:34;7.72;;;1.38;;
72464;SDS011;60471;52.150;4.508;2022-08-01T14:41:00;8.35;;;1.50;;
72464;SDS011;60471;52.150;4.508;2022-08-01T14:43:28;7.55;;;1.52;;
72464;SDS011;60471;52.150;4.508;2022-08-01T14:45:57;6.55;;;1.10;;
72464;SDS011;60471;52.150;4.508;2022-08-01T14:48:26;6.70;;;1.50;;
72464;SDS011;60471;52.150;4.508;2022-08-01T14:50:52;6.70;;;1.48;;
72464;SDS011;60471;52.150;4.508;2022-08-01T14:53:18;9.25;;;1.30;;
72464;SDS011;60471;52.150;4.508;2022-08-01T14:55:45;6.05;;;1.42;;
72464;SDS011;60471;52.150;4.508;2022-08-01T14:58:11;5.95;;;1.20;;
72464;SDS011;60471;52.150;4.508;2022-08-01T15:00:37;8.10;;;1.38;;
72464;SDS011;60471;52.150;4.508;2022-08-01T15:03:03;11.48;;;5.10;;
72464;SDS011;60471;52.150;4.508;2022-08-01T15:05:30;13.38;;;5.13;;
72464;SDS011;60471;52.150;4.508;2022-08-01T15:07:57;10.90;;;1.70;;
72464;SDS011;60471;52.150;4.508;2022-08-01T15:10:24;7.65;;;1.45;;
72464;SDS011;60471;52.150;4.508;2022-08-01T15:12:50;9.85;;;2.72;;
72464;SDS011;60471;52.150;4.508;2022-08-01T15:15:16;16.38;;;8.27;;
72464;SDS011;60471;52.150;4.508;2022-08-01T15:17:43;8.95;;;1.90;;
72464;SDS011;60471;52.150;4.508;2022-08-01T15:20:09;6.32;;;1.52;;
72464;SDS011;60471;52.150;4.508;2022-08-01T15:22:35;6.88;;;1.20;;
72464;SDS011;60471;52.150;4.508;2022-08-01T15:25:02;6.40;;;1.20;;
72464;SDS011;60471;52.150;4.508;2022-08-01T15:27:29;9.90;;;1.25;;
72464;SDS011;60471;52.150;4.508;2022-08-01T15:29:56;7.60;;;1.30;;
72464;SDS011;60471;52.150;4.508;2022-08-01T15:32:22;7.68;;;1.23;;
72464;SDS011;60471;52.150;4.508;2022-08-01T15:34:49;8.43;;;1.75;;
72464;SDS011;60471;52.150;4.508;2022-08-01T15:37:15;9.77;;;1.58;;
72464;SDS011;60471;52.150;4.508;2022-08-01T15:39:42;5.97;;;1.42;;
72464;SDS011;60471;52.150;4.508;2022-08-01T15:42:12;8.85;;;1.60;;
72464;SDS011;60471;52.150;4.508;2022-08-01T15:44:41;6.82;;;1.40;;